Map

Track Data

SID SEASON NUMBER BASIN SUBBASIN NAME ISO_TIME NATURE LAT LON WMO_WIND WMO_PRES WMO_AGENCY TRACK_TYPE DIST2LAND LANDFALL IFLAG USA_AGENCY USA_ATCF_ID USA_LAT USA_LON USA_RECORD USA_STATUS USA_WIND USA_PRES USA_SSHS USA_R34_NE USA_R34_SE USA_R34_SW USA_R34_NW USA_R50_NE USA_R50_SE USA_R50_SW USA_R50_NW USA_R64_NE USA_R64_SE USA_R64_SW USA_R64_NW USA_POCI USA_ROCI USA_RMW USA_EYE TOKYO_LAT TOKYO_LON TOKYO_GRADE TOKYO_WIND TOKYO_PRES TOKYO_R50_DIR TOKYO_R50_LONG TOKYO_R50_SHORT TOKYO_R30_DIR TOKYO_R30_LONG TOKYO_R30_SHORT TOKYO_LAND CMA_LAT CMA_LON CMA_CAT CMA_WIND CMA_PRES HKO_LAT HKO_LON HKO_CAT HKO_WIND HKO_PRES NEWDELHI_LAT NEWDELHI_LON NEWDELHI_GRADE NEWDELHI_WIND NEWDELHI_PRES NEWDELHI_CI NEWDELHI_DP NEWDELHI_POCI REUNION_LAT REUNION_LON REUNION_TYPE REUNION_WIND REUNION_PRES REUNION_TNUM REUNION_CI REUNION_RMW REUNION_R34_NE REUNION_R34_SE REUNION_R34_SW REUNION_R34_NW REUNION_R50_NE REUNION_R50_SE REUNION_R50_SW REUNION_R50_NW REUNION_R64_NE REUNION_R64_SE REUNION_R64_SW REUNION_R64_NW BOM_LAT BOM_LON BOM_TYPE BOM_WIND BOM_PRES BOM_TNUM BOM_CI BOM_RMW BOM_R34_NE BOM_R34_SE BOM_R34_SW BOM_R34_NW BOM_R50_NE BOM_R50_SE BOM_R50_SW BOM_R50_NW BOM_R64_NE BOM_R64_SE BOM_R64_SW BOM_R64_NW BOM_ROCI BOM_POCI BOM_EYE BOM_POS_METHOD BOM_PRES_METHOD NADI_LAT NADI_LON NADI_CAT NADI_WIND NADI_PRES WELLINGTON_LAT WELLINGTON_LON WELLINGTON_WIND WELLINGTON_PRES DS824_LAT DS824_LON DS824_STAGE DS824_WIND DS824_PRES TD9636_LAT TD9636_LON TD9636_STAGE TD9636_WIND TD9636_PRES TD9635_LAT TD9635_LON TD9635_WIND TD9635_PRES TD9635_ROCI NEUMANN_LAT NEUMANN_LON NEUMANN_CLASS NEUMANN_WIND NEUMANN_PRES MLC_LAT MLC_LON MLC_CLASS MLC_WIND MLC_PRES USA_GUST BOM_GUST BOM_GUST_PER REUNION_GUST REUNION_GUST_PER USA_SEAHGT USA_SEARAD_NE USA_SEARAD_SE USA_SEARAD_SW USA_SEARAD_NW STORM_SPEED STORM_DIR
1999334N11118 1999 99 WP MM NOT_NAMED 1999-11-29 12:00:00 NR 10.5000 117.500 main 141 141 O_____________ jtwc_wp WP311999 10.5000 117.500 15 -1 9 286
1999334N11118 1999 99 WP MM NOT_NAMED 1999-11-29 15:00:00 NR 10.6275 117.042 main 179 179 P_____________ WP311999 10.6275 117.042 15 -1 10 287
1999334N11118 1999 99 WP MM NOT_NAMED 1999-11-29 18:00:00 NR 10.8000 116.500 main 228 228 O_____________ jtwc_wp WP311999 10.8000 116.500 15 -1 13 289
1999334N11118 1999 99 WP MM NOT_NAMED 1999-11-29 21:00:00 NR 11.0426 115.823 main 297 297 P_____________ WP311999 11.0426 115.823 15 -1 15 290
1999334N11118 1999 99 WP MM NOT_NAMED 1999-11-30 00:00:00 NR 11.3000 115.100 main 375 375 O_____________ jtwc_wp WP311999 11.3000 115.100 15 -1 15 290
1999334N11118 1999 99 WP MM NOT_NAMED 1999-11-30 03:00:00 NR 11.5374 114.420 main 447 447 P_____________ WP311999 11.5374 114.420 17 -1 13 287
1999334N11118 1999 99 WP MM NOT_NAMED 1999-11-30 06:00:00 NR 11.7000 113.800 main 478 425 O_____________ jtwc_wp WP311999 11.7000 113.800 20 -1 12 280
1999334N11118 1999 99 WP MM NOT_NAMED 1999-11-30 09:00:00 NR 11.7449 113.262 main 425 372 P_____________ WP311999 11.7449 113.262 20 -1 10 270
1999334N11118 1999 99 WP MM NOT_NAMED 1999-11-30 12:00:00 NR 11.7000 112.800 main 372 334 O_____________ jtwc_wp WP311999 11.7000 112.800 20 -1 9 262
1999334N11118 1999 99 WP MM NOT_NAMED 1999-11-30 15:00:00 NR 11.6224 112.385 main 334 297 P_____________ WP311999 11.6224 112.385 20 -1 8 256
1999334N11118 1999 99 WP MM NOT_NAMED 1999-11-30 18:00:00 NR 11.5000 112.000 main 297 256 O_____________ jtwc_wp WP311999 11.5000 112.000 20 -1 8 252
1999334N11118 1999 99 WP MM NOT_NAMED 1999-11-30 21:00:00 NR 11.3725 111.593 main 256 221 P_____________ WP311999 11.3725 111.593 25 -1 8 249
1999334N11118 1999 99 WP MM NOT_NAMED 1999-12-01 00:00:00 NR 11.2000 111.200 main 221 196 O_____________ jtwc_wp WP311999 11.2000 111.200 30 -1 8 243
1999334N11118 1999 99 WP MM NOT_NAMED 1999-12-01 03:00:00 NR 10.9949 110.850 main 201 180 P_____________ WP311999 10.9949 110.850 30 -1 9 234
1999334N11118 1999 99 WP MM NOT_NAMED 1999-12-01 06:00:00 NR 10.7000 110.500 main 180 165 O_____________ jtwc_wp WP311999 10.7000 110.500 30 -1 10 227
1999334N11118 1999 99 WP MM NOT_NAMED 1999-12-01 09:00:00 NR 10.3100 110.108 main 172 172 P_____________ WP311999 10.3100 110.108 30 -1 12 221
1999334N11118 1999 99 WP MM NOT_NAMED 1999-12-01 12:00:00 NR 9.80000 109.700 main 191 191 O_____________ jtwc_wp WP311999 9.80000 109.700 30 -1 14 215
1999334N11118 1999 99 WP MM NOT_NAMED 1999-12-01 15:00:00 NR 9.17242 109.308 main 219 219 P_____________ WP311999 9.17242 109.308 27 -1 15 211
1999334N11118 1999 99 WP MM NOT_NAMED 1999-12-01 18:00:00 NR 8.50000 108.900 main 265 265 O_____________ jtwc_wp WP311999 8.50000 108.900 25 -1 16 212
1999334N11118 1999 99 WP MM NOT_NAMED 1999-12-01 21:00:00 NR 7.84747 108.465 main 298 290 P_____________ WP311999 7.84747 108.465 25 -1 15 217
1999334N11118 1999 99 WP MM NOT_NAMED 1999-12-02 00:00:00 NR 7.30000 108.000 main 302 302 O_____________ jtwc_wp WP311999 7.30000 108.000 25 -1 13 225
1999334N11118 1999 99 WP MM NOT_NAMED 1999-12-02 03:00:00 NR 6.90248 107.508 main 315 300 P_____________ WP311999 6.90248 107.508 25 -1 12 239
1999334N11118 1999 99 WP MM NOT_NAMED 1999-12-02 06:00:00 NR 6.70000 107.000 main 300 269 O_____________ jtwc_wp WP311999 6.70000 107.000 25 -1 10 258
1999334N11118 1999 99 WP MM NOT_NAMED 1999-12-02 09:00:00 NR 6.68999 106.485 main 269 236 P_____________ WP311999 6.68999 106.485 25 -1 10 276
1999334N11118 1999 99 WP MM NOT_NAMED 1999-12-02 12:00:00 NR 6.80000 106.000 main 236 215 O_____________ jtwc_wp WP311999 6.80000 106.000 25 -1 9 283
1999334N11118 1999 99 WP MM NOT_NAMED 1999-12-02 15:00:00 NR 6.89246 105.570 main 215 193 P_____________ WP311999 6.89246 105.570 25 -1 8 284
1999334N11118 1999 99 WP MM NOT_NAMED 1999-12-02 18:00:00 NR 7.00000 105.200 main 193 179 O_____________ jtwc_wp WP311999 7.00000 105.200 25 -1 7 287
1999334N11118 1999 99 WP MM NOT_NAMED 1999-12-02 21:00:00 NR 7.09993 104.892 main 179 169 P_____________ WP311999 7.09993 104.892 27 -1 6 289
1999334N11118 1999 99 WP MM NOT_NAMED 1999-12-03 00:00:00 NR 7.20000 104.600 main 171 166 O_____________ jtwc_wp WP311999 7.20000 104.600 30 -1 6 287
1999334N11118 1999 99 WP MM NOT_NAMED 1999-12-03 03:00:00 NR 7.28491 104.287 main 170 170 P_____________ WP311999 7.28491 104.287 30 -1 7 286
1999334N11118 1999 99 WP MM NOT_NAMED 1999-12-03 06:00:00 NR 7.40000 103.900 main 182 182 O_____________ jtwc_wp WP311999 7.40000 103.900 30 -1 9 289
1999334N11118 1999 99 WP MM NOT_NAMED 1999-12-03 09:00:00 NR 7.58497 103.395 main 201 173 P_____________ WP311999 7.58497 103.395 27 -1 12 290
1999334N11118 1999 99 WP MM NOT_NAMED 1999-12-03 12:00:00 NR 7.80000 102.800 main 173 145 O_____________ jtwc_wp WP311999 7.80000 102.800 25 -1 13 288
1999334N11118 1999 99 WP MM NOT_NAMED 1999-12-03 15:00:00 NR 7.98506 102.142 main 145 129 P_____________ WP311999 7.98506 102.142 25 -1 14 287
1999334N11118 1999 99 WP MM NOT_NAMED 1999-12-03 18:00:00 NR 8.20000 101.500 main 129 84 O_____________ jtwc_wp WP311999 8.20000 101.500 25 -1 13 293
1999334N11118 1999 99 WP MM NOT_NAMED 1999-12-03 21:00:00 NR 8.46990 100.962 main 88 55 P_____________ WP311999 8.46990 100.962 25 -1 12 301
1999334N11118 1999 99 WP MM NOT_NAMED 1999-12-04 00:00:00 NR 8.80000 100.500 main 55 31 O_____________ jtwc_wp WP311999 8.80000 100.500 25 -1 12 310
1999334N11118 1999 99 WP MM NOT_NAMED 1999-12-04 03:00:00 NR 9.23000 100.048 main 21 15 P_____________ WP311999 9.23000 100.048 25 -1 11 315
1999334N11118 1999 99 NI BB NOT_NAMED 1999-12-04 06:00:00 NR 9.60000 99.7000 main 44 39 O_____________ jtwc_wp WP311999 9.60000 99.7000 25 -1 7 314
1999334N11118 1999 99 NI BB NOT_NAMED 1999-12-04 09:00:00 NR 9.73741 99.5123 main 39 32 P_____________ WP311999 9.73741 99.5123 25 -1 4 304
1999334N11118 1999 99 NI BB NOT_NAMED 1999-12-04 12:00:00 NR 9.80000 99.4000 main 32 21 O_____________ jtwc_wp WP311999 9.80000 99.4000 25 -1 3 308
1999334N11118 1999 99 NI BB NOT_NAMED 1999-12-04 15:00:00 NR 9.91242 99.2873 main 21 0 P_____________ WP311999 9.91242 99.2873 25 -1 4 316
1999334N11118 1999 99 NI BB NOT_NAMED 1999-12-04 18:00:00 NR 10.1000 99.1000 main 0 0 O_____________ jtwc_wp WP311999 10.1000 99.1000 25 -1 7 313
1999334N11118 1999 99 NI BB NOT_NAMED 1999-12-04 21:00:00 NR 10.3899 98.7673 main 0 0 P_____________ WP311999 10.3899 98.7673 22 -1 11 312
1999334N11118 1999 99 NI BB NOT_NAMED 1999-12-05 00:00:00 NR 10.8000 98.3000 main 31 31 O_____________ jtwc_wp WP311999 10.8000 98.3000 20 -1 14 312
1999334N11118 1999 99 NI BB NOT_NAMED 1999-12-05 03:00:00 NR 11.3203 97.7281 main 110 103 P_____________ WP311999 11.3203 97.7281 20 -1 16 313
1999334N11118 1999 99 NI BB NOT_NAMED 1999-12-05 06:00:00 NR 11.9000 97.1000 main 152 O_____________ jtwc_wp WP311999 11.9000 97.1000 20 -1 17 313

Digital Typhoon Data and Search

About IBTrACS Database

This database is a web-friendly format of International Best Track Archive for Climate Stewardship (IBTrACS), a global best track data archive curated by NOAA dating back to 1842.

Updated: 2021-11-26